sensor_id;sensor_type;location;lat;lon;timestamp;P1;durP1;ratioP1;P2;durP2;ratioP2
61487;SDS011;47351;53.326;-6.298;2024-03-02T00:01:22;7.80;;;3.00;;
61487;SDS011;47351;53.326;-6.298;2024-03-02T00:04:33;12.00;;;3.40;;
61487;SDS011;47351;53.326;-6.298;2024-03-02T00:07:43;10.00;;;3.10;;
61487;SDS011;47351;53.326;-6.298;2024-03-02T00:10:57;6.80;;;2.90;;
61487;SDS011;47351;53.326;-6.298;2024-03-02T00:13:59;9.60;;;3.50;;
61487;SDS011;47351;53.326;-6.298;2024-03-02T00:17:12;11.60;;;3.70;;
61487;SDS011;47351;53.326;-6.298;2024-03-02T00:20:26;9.90;;;3.20;;
61487;SDS011;47351;53.326;-6.298;2024-03-02T00:23:37;10.50;;;3.40;;
61487;SDS011;47351;53.326;-6.298;2024-03-02T00:26:44;11.20;;;3.10;;
61487;SDS011;47351;53.326;-6.298;2024-03-02T00:29:54;8.30;;;3.10;;
61487;SDS011;47351;53.326;-6.298;2024-03-02T00:33:06;10.80;;;3.70;;
61487;SDS011;47351;53.326;-6.298;2024-03-02T00:36:16;7.40;;;2.40;;
61487;SDS011;47351;53.326;-6.298;2024-03-02T00:39:33;8.70;;;2.40;;
61487;SDS011;47351;53.326;-6.298;2024-03-02T00:45:46;9.20;;;2.30;;
61487;SDS011;47351;53.326;-6.298;2024-03-02T00:48:48;7.00;;;2.30;;
61487;SDS011;47351;53.326;-6.298;2024-03-02T00:52:02;9.30;;;2.30;;
61487;SDS011;47351;53.326;-6.298;2024-03-02T00:55:05;6.20;;;2.50;;
61487;SDS011;47351;53.326;-6.298;2024-03-02T00:58:07;10.00;;;3.70;;
61487;SDS011;47351;53.326;-6.298;2024-03-02T01:01:17;8.90;;;2.40;;
61487;SDS011;47351;53.326;-6.298;2024-03-02T01:04:19;8.50;;;2.40;;
61487;SDS011;47351;53.326;-6.298;2024-03-02T01:07:26;7.60;;;2.40;;
61487;SDS011;47351;53.326;-6.298;2024-03-02T01:10:36;7.50;;;2.70;;
61487;SDS011;47351;53.326;-6.298;2024-03-02T01:13:47;5.40;;;2.00;;
61487;SDS011;47351;53.326;-6.298;2024-03-02T01:16:57;8.00;;;2.50;;
61487;SDS011;47351;53.326;-6.298;2024-03-02T01:20:08;5.50;;;2.10;;
61487;SDS011;47351;53.326;-6.298;2024-03-02T01:23:20;8.60;;;2.40;;
61487;SDS011;47351;53.326;-6.298;2024-03-02T01:29:39;6.40;;;2.50;;
61487;SDS011;47351;53.326;-6.298;2024-03-02T01:32:49;9.10;;;2.40;;
61487;SDS011;47351;53.326;-6.298;2024-03-02T01:36:00;6.60;;;2.50;;
61487;SDS011;47351;53.326;-6.298;2024-03-02T01:39:10;8.00;;;2.40;;
61487;SDS011;47351;53.326;-6.298;2024-03-02T01:42:20;7.00;;;2.90;;
61487;SDS011;47351;53.326;-6.298;2024-03-02T01:45:23;9.30;;;2.70;;
61487;SDS011;47351;53.326;-6.298;2024-03-02T01:48:33;7.70;;;2.70;;
61487;SDS011;47351;53.326;-6.298;2024-03-02T01:51:43;7.10;;;2.60;;
61487;SDS011;47351;53.326;-6.298;2024-03-02T01:58:03;10.00;;;2.50;;
61487;SDS011;47351;53.326;-6.298;2024-03-02T02:01:13;11.00;;;2.70;;
61487;SDS011;47351;53.326;-6.298;2024-03-02T02:04:25;6.40;;;2.70;;
61487;SDS011;47351;53.326;-6.298;2024-03-02T02:07:35;13.60;;;3.40;;
61487;SDS011;47351;53.326;-6.298;2024-03-02T02:10:46;8.20;;;2.80;;
61487;SDS011;47351;53.326;-6.298;2024-03-02T02:13:59;9.90;;;2.50;;
61487;SDS011;47351;53.326;-6.298;2024-03-02T02:17:09;7.70;;;2.40;;
61487;SDS011;47351;53.326;-6.298;2024-03-02T02:20:20;7.20;;;2.60;;
61487;SDS011;47351;53.326;-6.298;2024-03-02T02:23:23;7.10;;;2.50;;
61487;SDS011;47351;53.326;-6.298;2024-03-02T02:26:28;11.50;;;2.90;;
61487;SDS011;47351;53.326;-6.298;2024-03-02T02:29:38;9.60;;;2.20;;
61487;SDS011;47351;53.326;-6.298;2024-03-02T02:32:48;7.40;;;2.30;;
61487;SDS011;47351;53.326;-6.298;2024-03-02T02:35:50;7.80;;;3.00;;
61487;SDS011;47351;53.326;-6.298;2024-03-02T02:38:59;9.00;;;2.90;;
61487;SDS011;47351;53.326;-6.298;2024-03-02T02:42:06;9.00;;;2.40;;
61487;SDS011;47351;53.326;-6.298;2024-03-02T02:44:58;7.10;;;2.40;;
61487;SDS011;47351;53.326;-6.298;2024-03-02T02:47:51;8.60;;;2.30;;
61487;SDS011;47351;53.326;-6.298;2024-03-02T02:51:01;9.00;;;2.80;;
61487;SDS011;47351;53.326;-6.298;2024-03-02T02:54:12;8.70;;;2.30;;
61487;SDS011;47351;53.326;-6.298;2024-03-02T02:57:22;10.60;;;2.20;;
61487;SDS011;47351;53.326;-6.298;2024-03-02T03:00:32;8.60;;;2.00;;
61487;SDS011;47351;53.326;-6.298;2024-03-02T03:06:52;11.50;;;2.50;;
61487;SDS011;47351;53.326;-6.298;2024-03-02T03:10:01;8.00;;;2.40;;
61487;SDS011;47351;53.326;-6.298;2024-03-02T03:13:12;9.20;;;2.50;;
61487;SDS011;47351;53.326;-6.298;2024-03-02T03:16:22;8.50;;;2.30;;
61487;SDS011;47351;53.326;-6.298;2024-03-02T03:19:26;9.10;;;2.30;;
61487;SDS011;47351;53.326;-6.298;2024-03-02T03:22:36;6.40;;;2.40;;
61487;SDS011;47351;53.326;-6.298;2024-03-02T03:25:47;10.30;;;2.20;;
61487;SDS011;47351;53.326;-6.298;2024-03-02T03:28:50;6.40;;;2.00;;
61487;SDS011;47351;53.326;-6.298;2024-03-02T03:32:00;9.50;;;2.10;;
61487;SDS011;47351;53.326;-6.298;2024-03-02T03:35:11;9.60;;;2.40;;
61487;SDS011;47351;53.326;-6.298;2024-03-02T03:38:22;7.30;;;2.20;;
61487;SDS011;47351;53.326;-6.298;2024-03-02T03:41:32;8.50;;;2.10;;
61487;SDS011;47351;53.326;-6.298;2024-03-02T03:44:42;6.90;;;2.30;;
61487;SDS011;47351;53.326;-6.298;2024-03-02T03:47:53;7.70;;;2.10;;
61487;SDS011;47351;53.326;-6.298;2024-03-02T03:51:03;11.10;;;2.50;;
61487;SDS011;47351;53.326;-6.298;2024-03-02T03:54:13;10.20;;;2.20;;
61487;SDS011;47351;53.326;-6.298;2024-03-02T03:57:23;6.20;;;2.20;;
61487;SDS011;47351;53.326;-6.298;2024-03-02T04:00:33;11.30;;;2.60;;
61487;SDS011;47351;53.326;-6.298;2024-03-02T04:03:43;11.00;;;2.80;;
61487;SDS011;47351;53.326;-6.298;2024-03-02T04:06:53;10.50;;;2.60;;
61487;SDS011;47351;53.326;-6.298;2024-03-02T04:10:04;11.40;;;2.60;;
61487;SDS011;47351;53.326;-6.298;2024-03-02T04:13:16;9.40;;;2.30;;
61487;SDS011;47351;53.326;-6.298;2024-03-02T04:16:26;11.30;;;2.80;;
61487;SDS011;47351;53.326;-6.298;2024-03-02T04:19:37;11.80;;;3.70;;
61487;SDS011;47351;53.326;-6.298;2024-03-02T04:22:47;11.60;;;4.10;;
61487;SDS011;47351;53.326;-6.298;2024-03-02T04:25:57;15.30;;;5.40;;
61487;SDS011;47351;53.326;-6.298;2024-03-02T04:32:09;11.20;;;3.00;;
61487;SDS011;47351;53.326;-6.298;2024-03-02T04:35:09;10.10;;;2.70;;
61487;SDS011;47351;53.326;-6.298;2024-03-02T04:38:19;10.60;;;2.40;;
61487;SDS011;47351;53.326;-6.298;2024-03-02T04:44:23;10.70;;;2.80;;
61487;SDS011;47351;53.326;-6.298;2024-03-02T04:47:16;14.60;;;2.60;;
61487;SDS011;47351;53.326;-6.298;2024-03-02T04:50:19;10.70;;;2.60;;
61487;SDS011;47351;53.326;-6.298;2024-03-02T04:53:18;11.40;;;3.00;;
61487;SDS011;47351;53.326;-6.298;2024-03-02T04:56:12;9.40;;;2.30;;
61487;SDS011;47351;53.326;-6.298;2024-03-02T04:59:40;8.60;;;2.10;;
61487;SDS011;47351;53.326;-6.298;2024-03-02T05:02:52;9.50;;;2.20;;
61487;SDS011;47351;53.326;-6.298;2024-03-02T05:05:55;12.10;;;2.00;;
61487;SDS011;47351;53.326;-6.298;2024-03-02T05:09:05;9.00;;;2.40;;
61487;SDS011;47351;53.326;-6.298;2024-03-02T05:12:15;11.10;;;2.80;;
61487;SDS011;47351;53.326;-6.298;2024-03-02T05:15:49;11.70;;;2.20;;
61487;SDS011;47351;53.326;-6.298;2024-03-02T05:19:00;12.70;;;2.20;;
61487;SDS011;47351;53.326;-6.298;2024-03-02T05:22:10;9.90;;;2.50;;
61487;SDS011;47351;53.326;-6.298;2024-03-02T05:25:20;7.20;;;2.70;;
61487;SDS011;47351;53.326;-6.298;2024-03-02T05:28:31;7.60;;;2.00;;
61487;SDS011;47351;53.326;-6.298;2024-03-02T05:34:43;8.20;;;2.10;;
61487;SDS011;47351;53.326;-6.298;2024-03-02T05:37:47;9.00;;;3.70;;
61487;SDS011;47351;53.326;-6.298;2024-03-02T05:40:47;12.70;;;2.50;;
61487;SDS011;47351;53.326;-6.298;2024-03-02T05:43:50;9.60;;;2.90;;
61487;SDS011;47351;53.326;-6.298;2024-03-02T05:47:00;10.80;;;2.00;;
61487;SDS011;47351;53.326;-6.298;2024-03-02T05:50:11;7.40;;;2.10;;
61487;SDS011;47351;53.326;-6.298;2024-03-02T05:53:21;8.00;;;2.10;;
61487;SDS011;47351;53.326;-6.298;2024-03-02T05:56:31;10.10;;;2.00;;
61487;SDS011;47351;53.326;-6.298;2024-03-02T05:59:41;9.20;;;2.10;;
61487;SDS011;47351;53.326;-6.298;2024-03-02T06:02:42;11.70;;;2.20;;
61487;SDS011;47351;53.326;-6.298;2024-03-02T06:05:52;8.80;;;2.50;;
61487;SDS011;47351;53.326;-6.298;2024-03-02T06:09:02;7.80;;;1.90;;
61487;SDS011;47351;53.326;-6.298;2024-03-02T06:12:15;10.10;;;2.80;;
61487;SDS011;47351;53.326;-6.298;2024-03-02T06:18:28;9.90;;;2.30;;
61487;SDS011;47351;53.326;-6.298;2024-03-02T06:21:38;9.90;;;2.20;;
61487;SDS011;47351;53.326;-6.298;2024-03-02T06:24:41;8.70;;;2.00;;
61487;SDS011;47351;53.326;-6.298;2024-03-02T06:27:50;7.40;;;2.00;;
61487;SDS011;47351;53.326;-6.298;2024-03-02T06:31:01;10.70;;;2.10;;
61487;SDS011;47351;53.326;-6.298;2024-03-02T06:34:12;8.70;;;2.00;;
61487;SDS011;47351;53.326;-6.298;2024-03-02T06:37:23;9.90;;;2.20;;
61487;SDS011;47351;53.326;-6.298;2024-03-02T06:40:27;9.80;;;1.80;;
61487;SDS011;47351;53.326;-6.298;2024-03-02T06:43:37;8.70;;;2.00;;
61487;SDS011;47351;53.326;-6.298;2024-03-02T06:46:47;7.40;;;1.80;;
61487;SDS011;47351;53.326;-6.298;2024-03-02T06:53:06;11.40;;;2.50;;
61487;SDS011;47351;53.326;-6.298;2024-03-02T06:56:17;8.50;;;2.10;;
61487;SDS011;47351;53.326;-6.298;2024-03-02T06:59:14;7.30;;;2.00;;
61487;SDS011;47351;53.326;-6.298;2024-03-02T07:02:24;7.10;;;2.50;;
61487;SDS011;47351;53.326;-6.298;2024-03-02T07:05:35;9.70;;;2.40;;
61487;SDS011;47351;53.326;-6.298;2024-03-02T07:08:36;7.40;;;2.10;;
61487;SDS011;47351;53.326;-6.298;2024-03-02T07:11:46;6.40;;;1.70;;
61487;SDS011;47351;53.326;-6.298;2024-03-02T07:14:56;8.70;;;2.00;;
61487;SDS011;47351;53.326;-6.298;2024-03-02T07:18:19;7.10;;;2.10;;
61487;SDS011;47351;53.326;-6.298;2024-03-02T07:21:29;8.40;;;2.40;;
61487;SDS011;47351;53.326;-6.298;2024-03-02T07:24:41;8.10;;;2.50;;
61487;SDS011;47351;53.326;-6.298;2024-03-02T07:27:43;9.50;;;2.40;;
61487;SDS011;47351;53.326;-6.298;2024-03-02T07:30:58;6.30;;;2.30;;
61487;SDS011;47351;53.326;-6.298;2024-03-02T07:34:09;8.90;;;3.10;;
61487;SDS011;47351;53.326;-6.298;2024-03-02T07:37:17;9.90;;;2.20;;
61487;SDS011;47351;53.326;-6.298;2024-03-02T07:40:28;7.10;;;1.90;;
61487;SDS011;47351;53.326;-6.298;2024-03-02T07:43:39;8.70;;;2.20;;
61487;SDS011;47351;53.326;-6.298;2024-03-02T07:49:58;9.60;;;2.90;;
61487;SDS011;47351;53.326;-6.298;2024-03-02T07:52:49;8.40;;;2.10;;
61487;SDS011;47351;53.326;-6.298;2024-03-02T07:55:59;6.00;;;2.00;;
61487;SDS011;47351;53.326;-6.298;2024-03-02T07:59:10;6.90;;;2.20;;
61487;SDS011;47351;53.326;-6.298;2024-03-02T08:02:03;3.70;;;2.00;;
61487;SDS011;47351;53.326;-6.298;2024-03-02T08:07:42;7.70;;;1.90;;
61487;SDS011;47351;53.326;-6.298;2024-03-02T08:10:44;5.60;;;1.70;;
61487;SDS011;47351;53.326;-6.298;2024-03-02T08:13:36;5.90;;;2.10;;
61487;SDS011;47351;53.326;-6.298;2024-03-02T08:16:46;5.70;;;2.00;;
61487;SDS011;47351;53.326;-6.298;2024-03-02T08:19:42;6.80;;;1.80;;
61487;SDS011;47351;53.326;-6.298;2024-03-02T08:22:41;5.30;;;1.70;;
61487;SDS011;47351;53.326;-6.298;2024-03-02T08:25:31;5.60;;;2.00;;
61487;SDS011;47351;53.326;-6.298;2024-03-02T08:28:25;4.20;;;1.70;;
61487;SDS011;47351;53.326;-6.298;2024-03-02T08:31:18;6.80;;;1.50;;
61487;SDS011;47351;53.326;-6.298;2024-03-02T08:34:28;4.40;;;1.60;;
61487;SDS011;47351;53.326;-6.298;2024-03-02T08:37:21;4.80;;;1.20;;
61487;SDS011;47351;53.326;-6.298;2024-03-02T08:43:25;5.00;;;1.30;;
61487;SDS011;47351;53.326;-6.298;2024-03-02T08:46:22;7.90;;;1.60;;
61487;SDS011;47351;53.326;-6.298;2024-03-02T08:49:14;3.80;;;1.10;;
61487;SDS011;47351;53.326;-6.298;2024-03-02T08:52:05;5.00;;;1.20;;
61487;SDS011;47351;53.326;-6.298;2024-03-02T08:54:55;5.10;;;1.10;;
61487;SDS011;47351;53.326;-6.298;2024-03-02T08:57:45;3.70;;;0.90;;
61487;SDS011;47351;53.326;-6.298;2024-03-02T09:00:35;2.80;;;1.10;;
61487;SDS011;47351;53.326;-6.298;2024-03-02T09:03:25;3.90;;;1.10;;
61487;SDS011;47351;53.326;-6.298;2024-03-02T09:09:05;3.60;;;0.90;;
61487;SDS011;47351;53.326;-6.298;2024-03-02T09:11:54;2.70;;;1.00;;
61487;SDS011;47351;53.326;-6.298;2024-03-02T09:14:45;4.20;;;1.10;;
61487;SDS011;47351;53.326;-6.298;2024-03-02T09:17:35;6.70;;;1.20;;
61487;SDS011;47351;53.326;-6.298;2024-03-02T09:20:27;4.20;;;1.10;;
61487;SDS011;47351;53.326;-6.298;2024-03-02T09:23:20;4.40;;;1.10;;
61487;SDS011;47351;53.326;-6.298;2024-03-02T09:26:10;5.60;;;1.20;;
61487;SDS011;47351;53.326;-6.298;2024-03-02T09:29:00;3.80;;;1.10;;
61487;SDS011;47351;53.326;-6.298;2024-03-02T09:31:50;7.70;;;1.30;;
61487;SDS011;47351;53.326;-6.298;2024-03-02T09:34:42;3.00;;;1.00;;
61487;SDS011;47351;53.326;-6.298;2024-03-02T09:37:32;4.20;;;1.40;;
61487;SDS011;47351;53.326;-6.298;2024-03-02T09:40:23;3.10;;;1.00;;
61487;SDS011;47351;53.326;-6.298;2024-03-02T09:43:15;4.00;;;1.20;;
61487;SDS011;47351;53.326;-6.298;2024-03-02T09:46:07;5.40;;;1.20;;
61487;SDS011;47351;53.326;-6.298;2024-03-02T09:48:58;6.20;;;1.20;;
61487;SDS011;47351;53.326;-6.298;2024-03-02T09:51:48;4.60;;;1.30;;
61487;SDS011;47351;53.326;-6.298;2024-03-02T09:54:59;4.70;;;1.30;;
61487;SDS011;47351;53.326;-6.298;2024-03-02T09:57:52;6.40;;;1.50;;
61487;SDS011;47351;53.326;-6.298;2024-03-02T10:01:02;4.90;;;1.30;;
61487;SDS011;47351;53.326;-6.298;2024-03-02T10:03:58;3.70;;;1.10;;
61487;SDS011;47351;53.326;-6.298;2024-03-02T10:10:13;4.80;;;1.50;;
61487;SDS011;47351;53.326;-6.298;2024-03-02T10:13:23;6.00;;;1.20;;
61487;SDS011;47351;53.326;-6.298;2024-03-02T10:16:27;4.50;;;1.10;;
61487;SDS011;47351;53.326;-6.298;2024-03-02T10:19:26;6.20;;;1.60;;
61487;SDS011;47351;53.326;-6.298;2024-03-02T10:22:33;5.30;;;1.60;;
61487;SDS011;47351;53.326;-6.298;2024-03-02T10:25:30;5.80;;;1.70;;
61487;SDS011;47351;53.326;-6.298;2024-03-02T10:28:27;5.30;;;1.40;;
61487;SDS011;47351;53.326;-6.298;2024-03-02T10:31:28;6.00;;;1.50;;
61487;SDS011;47351;53.326;-6.298;2024-03-02T10:34:31;5.10;;;1.40;;
61487;SDS011;47351;53.326;-6.298;2024-03-02T10:37:41;4.70;;;1.20;;
61487;SDS011;47351;53.326;-6.298;2024-03-02T10:40:52;4.60;;;1.70;;
61487;SDS011;47351;53.326;-6.298;2024-03-02T10:43:47;4.30;;;1.50;;
61487;SDS011;47351;53.326;-6.298;2024-03-02T10:46:47;6.20;;;1.30;;
61487;SDS011;47351;53.326;-6.298;2024-03-02T10:49:41;3.30;;;1.10;;
61487;SDS011;47351;53.326;-6.298;2024-03-02T10:52:36;5.40;;;1.60;;
61487;SDS011;47351;53.326;-6.298;2024-03-02T10:55:27;4.00;;;1.40;;
61487;SDS011;47351;53.326;-6.298;2024-03-02T10:58:27;4.70;;;1.20;;
61487;SDS011;47351;53.326;-6.298;2024-03-02T11:01:21;3.30;;;1.40;;
61487;SDS011;47351;53.326;-6.298;2024-03-02T11:04:16;2.80;;;1.10;;
61487;SDS011;47351;53.326;-6.298;2024-03-02T11:07:13;2.80;;;1.20;;
61487;SDS011;47351;53.326;-6.298;2024-03-02T11:10:14;5.10;;;1.30;;
61487;SDS011;47351;53.326;-6.298;2024-03-02T11:13:09;6.50;;;0.90;;
61487;SDS011;47351;53.326;-6.298;2024-03-02T11:16:03;4.70;;;1.80;;
61487;SDS011;47351;53.326;-6.298;2024-03-02T11:18:54;2.60;;;1.30;;
61487;SDS011;47351;53.326;-6.298;2024-03-02T11:21:44;3.90;;;1.10;;
61487;SDS011;47351;53.326;-6.298;2024-03-02T11:24:35;2.40;;;0.90;;
61487;SDS011;47351;53.326;-6.298;2024-03-02T11:30:49;1.60;;;0.70;;
61487;SDS011;47351;53.326;-6.298;2024-03-02T11:33:40;5.90;;;1.00;;
61487;SDS011;47351;53.326;-6.298;2024-03-02T11:39:20;3.10;;;0.80;;
61487;SDS011;47351;53.326;-6.298;2024-03-02T11:42:09;2.90;;;0.90;;
61487;SDS011;47351;53.326;-6.298;2024-03-02T11:45:01;2.10;;;0.70;;
61487;SDS011;47351;53.326;-6.298;2024-03-02T11:47:52;3.30;;;0.80;;
61487;SDS011;47351;53.326;-6.298;2024-03-02T11:50:49;2.10;;;0.70;;
61487;SDS011;47351;53.326;-6.298;2024-03-02T11:53:40;5.50;;;1.00;;
61487;SDS011;47351;53.326;-6.298;2024-03-02T11:56:31;2.30;;;1.00;;
61487;SDS011;47351;53.326;-6.298;2024-03-02T11:59:20;2.10;;;0.90;;
61487;SDS011;47351;53.326;-6.298;2024-03-02T12:02:15;1.90;;;0.90;;
61487;SDS011;47351;53.326;-6.298;2024-03-02T12:05:06;1.50;;;0.60;;
61487;SDS011;47351;53.326;-6.298;2024-03-02T12:07:57;2.50;;;0.60;;
61487;SDS011;47351;53.326;-6.298;2024-03-02T12:10:57;1.50;;;0.60;;
61487;SDS011;47351;53.326;-6.298;2024-03-02T12:13:57;2.30;;;0.60;;
61487;SDS011;47351;53.326;-6.298;2024-03-02T12:16:47;1.30;;;0.60;;
61487;SDS011;47351;53.326;-6.298;2024-03-02T12:22:25;2.30;;;0.80;;
61487;SDS011;47351;53.326;-6.298;2024-03-02T12:25:18;2.70;;;0.70;;
61487;SDS011;47351;53.326;-6.298;2024-03-02T12:28:10;5.50;;;1.00;;
61487;SDS011;47351;53.326;-6.298;2024-03-02T12:33:48;3.60;;;1.00;;
61487;SDS011;47351;53.326;-6.298;2024-03-02T12:39:28;3.30;;;0.70;;
61487;SDS011;47351;53.326;-6.298;2024-03-02T12:42:19;3.10;;;1.00;;
61487;SDS011;47351;53.326;-6.298;2024-03-02T12:45:11;1.50;;;0.80;;
61487;SDS011;47351;53.326;-6.298;2024-03-02T12:48:02;1.30;;;1.00;;
61487;SDS011;47351;53.326;-6.298;2024-03-02T12:50:57;2.40;;;0.80;;
61487;SDS011;47351;53.326;-6.298;2024-03-02T12:53:53;3.60;;;0.90;;
61487;SDS011;47351;53.326;-6.298;2024-03-02T12:56:43;1.30;;;0.80;;
61487;SDS011;47351;53.326;-6.298;2024-03-02T12:59:39;1.70;;;0.80;;
61487;SDS011;47351;53.326;-6.298;2024-03-02T13:02:39;2.80;;;0.90;;
61487;SDS011;47351;53.326;-6.298;2024-03-02T13:05:36;2.00;;;0.80;;
61487;SDS011;47351;53.326;-6.298;2024-03-02T13:08:30;0.80;;;0.70;;
61487;SDS011;47351;53.326;-6.298;2024-03-02T13:11:29;2.30;;;1.10;;
61487;SDS011;47351;53.326;-6.298;2024-03-02T13:14:28;1.50;;;0.60;;
61487;SDS011;47351;53.326;-6.298;2024-03-02T13:17:30;2.50;;;1.00;;
61487;SDS011;47351;53.326;-6.298;2024-03-02T13:20:32;2.80;;;1.20;;
61487;SDS011;47351;53.326;-6.298;2024-03-02T13:23:42;2.60;;;1.50;;
61487;SDS011;47351;53.326;-6.298;2024-03-02T13:26:35;2.20;;;1.40;;
61487;SDS011;47351;53.326;-6.298;2024-03-02T13:29:45;2.10;;;1.10;;
61487;SDS011;47351;53.326;-6.298;2024-03-02T13:32:36;5.10;;;1.10;;
61487;SDS011;47351;53.326;-6.298;2024-03-02T13:35:28;3.00;;;1.00;;
61487;SDS011;47351;53.326;-6.298;2024-03-02T13:38:38;3.80;;;1.70;;
61487;SDS011;47351;53.326;-6.298;2024-03-02T13:41:28;1.80;;;1.10;;
61487;SDS011;47351;53.326;-6.298;2024-03-02T13:44:18;1.80;;;0.80;;
61487;SDS011;47351;53.326;-6.298;2024-03-02T13:47:18;1.60;;;0.80;;
61487;SDS011;47351;53.326;-6.298;2024-03-02T13:50:12;4.00;;;1.10;;
61487;SDS011;47351;53.326;-6.298;2024-03-02T13:53:02;2.80;;;1.10;;
61487;SDS011;47351;53.326;-6.298;2024-03-02T13:55:54;3.00;;;1.10;;
61487;SDS011;47351;53.326;-6.298;2024-03-02T14:01:43;2.20;;;1.10;;
61487;SDS011;47351;53.326;-6.298;2024-03-02T14:04:37;1.70;;;1.00;;
61487;SDS011;47351;53.326;-6.298;2024-03-02T14:07:47;2.20;;;1.20;;
61487;SDS011;47351;53.326;-6.298;2024-03-02T14:10:38;3.10;;;1.60;;
61487;SDS011;47351;53.326;-6.298;2024-03-02T14:13:37;2.60;;;0.90;;
61487;SDS011;47351;53.326;-6.298;2024-03-02T14:16:30;3.30;;;1.10;;
61487;SDS011;47351;53.326;-6.298;2024-03-02T14:19:30;3.00;;;1.00;;
61487;SDS011;47351;53.326;-6.298;2024-03-02T14:22:20;3.20;;;1.40;;
61487;SDS011;47351;53.326;-6.298;2024-03-02T14:25:13;3.00;;;1.20;;
61487;SDS011;47351;53.326;-6.298;2024-03-02T14:28:24;3.10;;;1.00;;
61487;SDS011;47351;53.326;-6.298;2024-03-02T14:31:39;3.70;;;1.60;;
61487;SDS011;47351;53.326;-6.298;2024-03-02T14:34:33;1.70;;;1.00;;
61487;SDS011;47351;53.326;-6.298;2024-03-02T14:37:39;2.00;;;1.00;;
61487;SDS011;47351;53.326;-6.298;2024-03-02T14:40:29;0.90;;;0.70;;
61487;SDS011;47351;53.326;-6.298;2024-03-02T14:43:26;3.70;;;1.20;;
61487;SDS011;47351;53.326;-6.298;2024-03-02T14:46:23;1.40;;;1.00;;
61487;SDS011;47351;53.326;-6.298;2024-03-02T14:49:23;1.80;;;1.00;;
61487;SDS011;47351;53.326;-6.298;2024-03-02T14:52:22;3.30;;;1.20;;
61487;SDS011;47351;53.326;-6.298;2024-03-02T14:55:12;1.70;;;1.00;;
61487;SDS011;47351;53.326;-6.298;2024-03-02T14:58:07;2.60;;;1.40;;
61487;SDS011;47351;53.326;-6.298;2024-03-02T15:01:02;2.30;;;1.20;;
61487;SDS011;47351;53.326;-6.298;2024-03-02T15:03:54;3.00;;;1.10;;
61487;SDS011;47351;53.326;-6.298;2024-03-02T15:07:04;1.40;;;0.90;;
61487;SDS011;47351;53.326;-6.298;2024-03-02T15:12:54;5.00;;;1.70;;
61487;SDS011;47351;53.326;-6.298;2024-03-02T15:15:47;2.10;;;1.30;;
61487;SDS011;47351;53.326;-6.298;2024-03-02T15:18:57;5.00;;;1.90;;
61487;SDS011;47351;53.326;-6.298;2024-03-02T15:21:50;4.00;;;1.70;;
61487;SDS011;47351;53.326;-6.298;2024-03-02T15:24:43;3.30;;;1.40;;
61487;SDS011;47351;53.326;-6.298;2024-03-02T15:27:42;5.00;;;1.50;;
61487;SDS011;47351;53.326;-6.298;2024-03-02T15:30:35;4.10;;;2.10;;
61487;SDS011;47351;53.326;-6.298;2024-03-02T15:33:25;5.60;;;3.10;;
61487;SDS011;47351;53.326;-6.298;2024-03-02T15:36:28;5.50;;;2.60;;
61487;SDS011;47351;53.326;-6.298;2024-03-02T15:39:18;5.30;;;2.70;;
61487;SDS011;47351;53.326;-6.298;2024-03-02T15:42:17;7.80;;;3.10;;
61487;SDS011;47351;53.326;-6.298;2024-03-02T15:45:14;6.70;;;3.30;;
61487;SDS011;47351;53.326;-6.298;2024-03-02T15:48:07;8.60;;;4.40;;
61487;SDS011;47351;53.326;-6.298;2024-03-02T15:51:17;6.50;;;3.30;;
61487;SDS011;47351;53.326;-6.298;2024-03-02T15:54:21;9.30;;;4.10;;
61487;SDS011;47351;53.326;-6.298;2024-03-02T15:57:11;4.60;;;2.50;;
61487;SDS011;47351;53.326;-6.298;2024-03-02T16:00:22;6.30;;;3.20;;
61487;SDS011;47351;53.326;-6.298;2024-03-02T16:03:21;7.40;;;2.40;;
61487;SDS011;47351;53.326;-6.298;2024-03-02T16:06:15;5.60;;;2.20;;
61487;SDS011;47351;53.326;-6.298;2024-03-02T16:09:14;8.90;;;3.50;;
61487;SDS011;47351;53.326;-6.298;2024-03-02T16:12:07;7.00;;;3.50;;
61487;SDS011;47351;53.326;-6.298;2024-03-02T16:15:00;9.10;;;3.80;;
61487;SDS011;47351;53.326;-6.298;2024-03-02T16:18:11;8.00;;;4.10;;
61487;SDS011;47351;53.326;-6.298;2024-03-02T16:21:05;7.40;;;3.70;;
61487;SDS011;47351;53.326;-6.298;2024-03-02T16:24:06;7.80;;;3.70;;
61487;SDS011;47351;53.326;-6.298;2024-03-02T16:26:56;7.20;;;3.60;;
61487;SDS011;47351;53.326;-6.298;2024-03-02T16:29:53;5.20;;;3.00;;
61487;SDS011;47351;53.326;-6.298;2024-03-02T16:32:55;5.60;;;2.80;;
61487;SDS011;47351;53.326;-6.298;2024-03-02T16:35:46;8.40;;;3.70;;
61487;SDS011;47351;53.326;-6.298;2024-03-02T16:38:49;5.10;;;2.90;;
61487;SDS011;47351;53.326;-6.298;2024-03-02T16:41:59;8.90;;;4.30;;
61487;SDS011;47351;53.326;-6.298;2024-03-02T16:45:01;5.80;;;2.30;;
61487;SDS011;47351;53.326;-6.298;2024-03-02T16:51:11;6.60;;;3.30;;
61487;SDS011;47351;53.326;-6.298;2024-03-02T16:54:14;6.40;;;3.20;;
61487;SDS011;47351;53.326;-6.298;2024-03-02T16:57:08;6.10;;;2.60;;
61487;SDS011;47351;53.326;-6.298;2024-03-02T17:00:07;4.40;;;2.40;;
61487;SDS011;47351;53.326;-6.298;2024-03-02T17:03:08;6.60;;;2.90;;
61487;SDS011;47351;53.326;-6.298;2024-03-02T17:06:00;5.60;;;3.10;;
61487;SDS011;47351;53.326;-6.298;2024-03-02T17:08:51;6.70;;;3.10;;
61487;SDS011;47351;53.326;-6.298;2024-03-02T17:11:52;14.40;;;7.50;;
61487;SDS011;47351;53.326;-6.298;2024-03-02T17:14:56;11.60;;;6.40;;
61487;SDS011;47351;53.326;-6.298;2024-03-02T17:17:54;6.90;;;3.90;;
61487;SDS011;47351;53.326;-6.298;2024-03-02T17:20:45;8.00;;;4.00;;
61487;SDS011;47351;53.326;-6.298;2024-03-02T17:23:55;6.50;;;3.20;;
61487;SDS011;47351;53.326;-6.298;2024-03-02T17:27:06;6.90;;;3.90;;
61487;SDS011;47351;53.326;-6.298;2024-03-02T17:30:16;25.00;;;21.80;;
61487;SDS011;47351;53.326;-6.298;2024-03-02T17:33:11;8.90;;;5.50;;
61487;SDS011;47351;53.326;-6.298;2024-03-02T17:36:04;6.90;;;4.40;;
61487;SDS011;47351;53.326;-6.298;2024-03-02T17:39:03;7.40;;;4.90;;
61487;SDS011;47351;53.326;-6.298;2024-03-02T17:41:57;10.70;;;7.40;;
61487;SDS011;47351;53.326;-6.298;2024-03-02T17:44:57;16.90;;;9.70;;
61487;SDS011;47351;53.326;-6.298;2024-03-02T17:48:07;25.90;;;13.50;;
61487;SDS011;47351;53.326;-6.298;2024-03-02T17:50:59;14.20;;;9.00;;
61487;SDS011;47351;53.326;-6.298;2024-03-02T17:53:49;9.30;;;5.90;;
61487;SDS011;47351;53.326;-6.298;2024-03-02T17:56:40;8.50;;;5.50;;
61487;SDS011;47351;53.326;-6.298;2024-03-02T17:59:30;11.20;;;6.90;;
61487;SDS011;47351;53.326;-6.298;2024-03-02T18:02:24;8.80;;;5.80;;
61487;SDS011;47351;53.326;-6.298;2024-03-02T18:05:15;14.00;;;8.20;;
61487;SDS011;47351;53.326;-6.298;2024-03-02T18:08:09;10.20;;;6.60;;
61487;SDS011;47351;53.326;-6.298;2024-03-02T18:11:09;16.70;;;11.30;;
61487;SDS011;47351;53.326;-6.298;2024-03-02T18:14:13;11.80;;;6.50;;
61487;SDS011;47351;53.326;-6.298;2024-03-02T18:17:23;12.50;;;8.00;;
61487;SDS011;47351;53.326;-6.298;2024-03-02T18:20:33;11.00;;;6.70;;
61487;SDS011;47351;53.326;-6.298;2024-03-02T18:23:43;13.00;;;8.20;;
61487;SDS011;47351;53.326;-6.298;2024-03-02T18:26:37;12.40;;;7.90;;
61487;SDS011;47351;53.326;-6.298;2024-03-02T18:29:29;19.10;;;9.60;;
61487;SDS011;47351;53.326;-6.298;2024-03-02T18:35:32;19.70;;;13.70;;
61487;SDS011;47351;53.326;-6.298;2024-03-02T18:38:44;17.80;;;12.50;;
61487;SDS011;47351;53.326;-6.298;2024-03-02T18:41:34;23.10;;;14.10;;
61487;SDS011;47351;53.326;-6.298;2024-03-02T18:44:44;24.30;;;15.80;;
61487;SDS011;47351;53.326;-6.298;2024-03-02T18:47:55;21.80;;;14.70;;
61487;SDS011;47351;53.326;-6.298;2024-03-02T18:51:09;21.00;;;13.50;;
61487;SDS011;47351;53.326;-6.298;2024-03-02T18:54:04;20.60;;;15.00;;
61487;SDS011;47351;53.326;-6.298;2024-03-02T19:00:22;21.00;;;13.80;;
61487;SDS011;47351;53.326;-6.298;2024-03-02T19:03:32;22.90;;;14.70;;
61487;SDS011;47351;53.326;-6.298;2024-03-02T19:06:42;26.80;;;17.90;;